createdAt,value
2023-03-16T00:00:40.632Z,100346.08
2023-03-16T00:03:23.745Z,100348.55
2023-03-16T00:05:56.917Z,100346.83
2023-03-16T00:08:29.169Z,100347.16
2023-03-16T00:11:02.832Z,100349.69
2023-03-16T00:13:35.146Z,100352.02
2023-03-16T00:16:07.895Z,100353.62
2023-03-16T00:18:42.079Z,100352.67
2023-03-16T00:21:16.223Z,100357.33
2023-03-16T00:23:48.500Z,100359.08
2023-03-16T00:26:21.022Z,100364.77
2023-03-16T00:28:54.420Z,100362.67
2023-03-16T00:31:26.753Z,100365.73
2023-03-16T00:33:59.102Z,100362.86
2023-03-16T00:36:34.028Z,100367.21
2023-03-16T00:39:07.046Z,100362.34
2023-03-16T00:41:39.693Z,100364.54
2023-03-16T00:44:12.045Z,100366.29
2023-03-16T00:46:44.207Z,100365.52
2023-03-16T00:49:16.493Z,100364.45
2023-03-16T00:51:48.955Z,100363.10
2023-03-16T00:54:22.320Z,100361.75
2023-03-16T00:56:55.010Z,100363.13
2023-03-16T00:59:27.487Z,100362.04
2023-03-16T01:01:59.810Z,100364.14
2023-03-16T01:04:32.614Z,100360.83
2023-03-16T01:07:05.742Z,100364.19
2023-03-16T01:09:38.084Z,100368.39
2023-03-16T01:12:13.410Z,100369.94
2023-03-16T01:14:46.040Z,100367.20
2023-03-16T01:17:19.596Z,100363.75
2023-03-16T01:19:52.508Z,100356.65
2023-03-16T01:22:25.998Z,100364.78
2023-03-16T01:25:00.099Z,100367.86
2023-03-16T01:27:33.517Z,100370.48
2023-03-16T01:30:06.782Z,100371.80
2023-03-16T01:32:40.043Z,100377.34
2023-03-16T01:35:13.976Z,100376.27
2023-03-16T01:37:46.383Z,100377.19
2023-03-16T01:40:26.489Z,100375.13
2023-03-16T01:43:04.608Z,100377.38
2023-03-16T01:46:18.205Z,100377.25
2023-03-16T01:49:00.833Z,100371.98
2023-03-16T01:51:43.089Z,100376.47
2023-03-16T01:54:23.144Z,100381.41
2023-03-16T01:57:02.543Z,100380.14
2023-03-16T01:59:38.643Z,100381.61
2023-03-16T02:02:13.485Z,100383.30
2023-03-16T02:04:52.438Z,100383.91
2023-03-16T02:07:28.927Z,100382.56
2023-03-16T02:10:04.950Z,100382.13
2023-03-16T02:12:37.906Z,100380.84
2023-03-16T02:15:14.034Z,100378.73
2023-03-16T02:17:48.455Z,100382.55
2023-03-16T02:20:33.522Z,100380.19
2023-03-16T02:23:07.449Z,100385.91
2023-03-16T02:25:46.174Z,100393.93
2023-03-16T02:28:26.350Z,100399.25
2023-03-16T02:30:59.166Z,100400.61
2023-03-16T02:33:33.926Z,100396.41
2023-03-16T02:36:07.642Z,100394.38
2023-03-16T02:38:40.009Z,100398.23
2023-03-16T02:41:16.180Z,100399.33
2023-03-16T02:43:54.920Z,100401.20
2023-03-16T02:46:36.004Z,100402.74
2023-03-16T02:49:17.537Z,100403.80
2023-03-16T02:51:50.600Z,100405.88
2023-03-16T02:54:23.374Z,100409.15
2023-03-16T02:56:57.190Z,100411.40
2023-03-16T02:59:30.258Z,100412.18
2023-03-16T03:02:02.813Z,100413.92
2023-03-16T03:04:35.188Z,100417.52
2023-03-16T03:07:07.634Z,100419.80
2023-03-16T03:09:53.791Z,100418.95
2023-03-16T03:12:26.272Z,100420.25
2023-03-16T03:14:58.968Z,100423.67
2023-03-16T03:17:33.334Z,100426.34
2023-03-16T03:20:13.910Z,100426.32
2023-03-16T03:22:47.820Z,100428.12
2023-03-16T03:25:21.972Z,100428.73
2023-03-16T03:27:55.836Z,100431.96
2023-03-16T03:30:29.045Z,100429.17
2023-03-16T03:33:02.039Z,100430.60
2023-03-16T03:35:35.012Z,100433.02
2023-03-16T03:38:08.204Z,100433.21
2023-03-16T03:40:41.448Z,100432.38
2023-03-16T03:43:14.110Z,100438.70
2023-03-16T03:45:47.579Z,100438.45
2023-03-16T03:48:20.501Z,100444.56
2023-03-16T03:50:52.944Z,100443.29
2023-03-16T03:53:47.032Z,100444.35
2023-03-16T03:56:44.112Z,100452.40
2023-03-16T03:59:18.846Z,100453.55
2023-03-16T04:02:03.480Z,100451.55
2023-03-16T04:04:56.065Z,100453.64
2023-03-16T04:07:28.409Z,100452.92
2023-03-16T04:10:02.507Z,100452.25
2023-03-16T04:12:39.908Z,100451.58
2023-03-16T04:15:15.086Z,100456.55
2023-03-16T04:18:10.470Z,100451.44
2023-03-16T04:20:43.181Z,100451.65
2023-03-16T04:23:16.846Z,100447.69
2023-03-16T04:25:49.942Z,100449.77
2023-03-16T04:28:23.423Z,100449.80
2023-03-16T04:30:57.423Z,100446.33
2023-03-16T04:33:35.353Z,100446.48
2023-03-16T04:36:09.267Z,100447.13
2023-03-16T04:38:42.814Z,100445.98
2023-03-16T04:41:15.407Z,100448.11
2023-03-16T04:43:54.356Z,100452.08
2023-03-16T04:46:29.641Z,100452.98
2023-03-16T04:49:03.177Z,100451.86
2023-03-16T04:51:35.987Z,100454.37
2023-03-16T04:54:11.387Z,100455.77
2023-03-16T04:56:46.425Z,100456.06
2023-03-16T04:59:30.919Z,100458.60
2023-03-16T05:02:08.327Z,100465.19
2023-03-16T05:04:42.602Z,100461.39
2023-03-16T05:07:16.712Z,100459.80
2023-03-16T05:09:53.330Z,100459.61
2023-03-16T05:12:25.753Z,100462.63
2023-03-16T05:15:01.802Z,100458.09
2023-03-16T05:17:46.768Z,100459.88
2023-03-16T05:20:21.981Z,100461.30
2023-03-16T05:22:56.627Z,100468.54
2023-03-16T05:25:32.171Z,100466.95
2023-03-16T05:28:07.882Z,100466.25
2023-03-16T05:30:46.413Z,100464.40
2023-03-16T05:33:22.483Z,100473.64
2023-03-16T05:35:58.694Z,100474.13
2023-03-16T05:38:32.018Z,100476.84
2023-03-16T05:41:06.066Z,100482.97
2023-03-16T05:43:53.379Z,100484.97
2023-03-16T05:46:26.767Z,100487.23
2023-03-16T05:48:59.493Z,100487.84
2023-03-16T05:51:32.128Z,100486.61
2023-03-16T05:54:05.044Z,100489.17
2023-03-16T05:56:41.387Z,100492.77
2023-03-16T05:59:14.594Z,100486.73
2023-03-16T06:01:47.118Z,100488.58
2023-03-16T06:04:19.793Z,100490.52
2023-03-16T06:06:52.290Z,100489.99
2023-03-16T06:09:27.049Z,100490.69
2023-03-16T06:11:59.495Z,100491.27
2023-03-16T06:14:31.990Z,100490.21
2023-03-16T06:17:05.388Z,100488.50
2023-03-16T06:19:39.971Z,100493.02
2023-03-16T06:22:13.457Z,100490.09
2023-03-16T06:24:45.902Z,100493.09
2023-03-16T06:27:20.457Z,100499.08
2023-03-16T06:30:08.812Z,100500.95
2023-03-16T06:32:43.208Z,100499.23
2023-03-16T06:35:16.127Z,100501.35
2023-03-16T06:37:53.626Z,100504.05
2023-03-16T06:40:35.609Z,100506.77
2023-03-16T06:43:08.012Z,100507.63
2023-03-16T06:45:40.588Z,100513.36
2023-03-16T06:48:13.301Z,100516.89
2023-03-16T06:50:47.680Z,100518.25
2023-03-16T06:53:24.636Z,100521.21
2023-03-16T06:55:57.534Z,100520.38
2023-03-16T06:58:31.573Z,100522.17
2023-03-16T07:01:05.878Z,100524.09
2023-03-16T07:03:38.143Z,100520.52
2023-03-16T07:06:18.211Z,100529.30
2023-03-16T07:08:50.800Z,100526.85
2023-03-16T07:11:23.806Z,100526.32
2023-03-16T07:13:56.392Z,100525.56
2023-03-16T07:16:29.187Z,100524.66
2023-03-16T07:19:03.687Z,100521.83
2023-03-16T07:21:40.146Z,100523.46
2023-03-16T07:24:15.362Z,100524.29
2023-03-16T07:26:47.692Z,100522.55
2023-03-16T07:29:27.781Z,100525.92
2023-03-16T07:32:00.184Z,100526.48
2023-03-16T07:34:38.337Z,100524.93
2023-03-16T07:37:11.053Z,100530.59
2023-03-16T07:39:44.363Z,100529.08
2023-03-16T07:42:22.802Z,100529.34
2023-03-16T07:45:05.249Z,100534.01
2023-03-16T07:47:37.846Z,100535.12
2023-03-16T07:50:23.395Z,100535.63
2023-03-16T07:52:57.582Z,100537.36
2023-03-16T07:55:30.654Z,100556.30
2023-03-16T07:58:05.148Z,100551.73
2023-03-16T08:00:39.732Z,100557.59
2023-03-16T08:03:12.339Z,100557.88
2023-03-16T08:05:44.922Z,100552.17
2023-03-16T08:08:20.381Z,100548.92
2023-03-16T08:10:56.189Z,100552.51
2023-03-16T08:13:32.032Z,100550.84
2023-03-16T08:16:05.647Z,100552.17
2023-03-16T08:18:42.697Z,100552.98
2023-03-16T08:21:15.867Z,100557.84
2023-03-16T08:23:50.535Z,100558.95
2023-03-16T08:26:24.496Z,100559.55
2023-03-16T08:29:03.283Z,100560.39
2023-03-16T08:31:37.371Z,100568.50
2023-03-16T08:34:18.038Z,100572.67
2023-03-16T08:36:50.464Z,100571.41
2023-03-16T08:39:23.194Z,100574.14
2023-03-16T08:41:56.771Z,100574.33
2023-03-16T08:44:40.144Z,100574.30
2023-03-16T08:47:14.428Z,100571.88
2023-03-16T08:49:49.296Z,100575.81
2023-03-16T08:52:22.953Z,100583.98
2023-03-16T08:55:03.309Z,100587.50
2023-03-16T08:57:37.693Z,100582.70
2023-03-16T09:00:14.986Z,100584.73
2023-03-16T09:02:48.094Z,100589.98
2023-03-16T09:05:20.589Z,100592.84
2023-03-16T09:07:53.718Z,100585.81
2023-03-16T09:10:27.851Z,100589.38
2023-03-16T09:13:00.381Z,100586.83
2023-03-16T09:15:32.642Z,100592.60
2023-03-16T09:18:05.777Z,100591.90
2023-03-16T09:20:38.462Z,100594.72
2023-03-16T09:23:11.766Z,100594.61
2023-03-16T09:25:44.318Z,100597.88
2023-03-16T09:28:18.749Z,100597.44
2023-03-16T09:30:52.130Z,100596.00
2023-03-16T09:33:25.603Z,100595.65
2023-03-16T09:35:59.313Z,100592.84
2023-03-16T09:38:32.319Z,100593.73
2023-03-16T09:41:08.548Z,100594.11
2023-03-16T09:43:53.152Z,100594.66
2023-03-16T09:46:34.935Z,100590.78
2023-03-16T09:49:08.035Z,100595.17
2023-03-16T09:51:49.853Z,100599.04
2023-03-16T09:54:30.212Z,100595.20
2023-03-16T09:57:03.063Z,100599.49
2023-03-16T09:59:35.552Z,100603.14
2023-03-16T10:02:32.230Z,100598.16
2023-03-16T10:05:10.780Z,100601.31
2023-03-16T10:07:54.658Z,100595.79
2023-03-16T10:10:47.085Z,100600.38
2023-03-16T10:13:33.186Z,100603.77
2023-03-16T10:16:10.882Z,100604.61
2023-03-16T10:18:46.690Z,100605.84
2023-03-16T10:21:20.714Z,100608.95
2023-03-16T10:23:55.489Z,100606.60
2023-03-16T10:26:35.231Z,100605.52
2023-03-16T10:29:12.431Z,100607.78
2023-03-16T10:31:45.479Z,100609.42
2023-03-16T10:34:17.933Z,100606.98
2023-03-16T10:36:51.412Z,100606.86
2023-03-16T10:39:23.840Z,100607.34
2023-03-16T10:42:00.531Z,100610.46
2023-03-16T10:44:33.518Z,100613.29
2023-03-16T10:47:08.463Z,100611.69
2023-03-16T10:49:47.265Z,100612.77
2023-03-16T10:52:24.960Z,100615.69
2023-03-16T10:55:01.331Z,100613.55
2023-03-16T10:57:36.283Z,100618.62
2023-03-16T11:00:20.931Z,100621.02
2023-03-16T11:02:55.486Z,100620.47
2023-03-16T11:05:33.908Z,100626.36
2023-03-16T11:08:15.064Z,100628.63
2023-03-16T11:10:57.336Z,100630.38
2023-03-16T11:13:36.275Z,100631.04
2023-03-16T11:16:18.893Z,100632.61
2023-03-16T11:18:55.584Z,100638.35
2023-03-16T11:21:41.248Z,100637.34
2023-03-16T11:24:24.247Z,100645.61
2023-03-16T11:26:59.615Z,100648.10
2023-03-16T11:29:49.617Z,100652.92
2023-03-16T11:32:27.531Z,100653.46
2023-03-16T11:35:00.263Z,100658.12
2023-03-16T11:37:46.334Z,100659.83
2023-03-16T11:40:31.369Z,100660.84
2023-03-16T11:43:13.354Z,100661.75
2023-03-16T11:45:54.204Z,100661.60
2023-03-16T11:48:36.716Z,100658.98
2023-03-16T11:51:16.859Z,100659.77
2023-03-16T11:54:09.678Z,100663.71
2023-03-16T11:56:47.840Z,100661.38
2023-03-16T11:59:55.324Z,100660.90
2023-03-16T12:02:56.163Z,100656.90
2023-03-16T12:05:55.278Z,100658.48
2023-03-16T12:08:54.874Z,100654.81
2023-03-16T12:11:29.966Z,100651.69
2023-03-16T12:14:15.854Z,100653.41
2023-03-16T12:16:55.112Z,100650.48
2023-03-16T12:19:38.578Z,100649.02
2023-03-16T12:22:18.850Z,100655.87
2023-03-16T12:24:51.624Z,100656.25
2023-03-16T12:27:31.584Z,100656.59
2023-03-16T12:30:20.582Z,100659.33
2023-03-16T12:33:02.203Z,100662.38
2023-03-16T12:35:42.569Z,100663.55
2023-03-16T12:38:38.586Z,100665.14
2023-03-16T12:41:23.413Z,100666.66
2023-03-16T12:44:11.176Z,100671.06
2023-03-16T12:46:53.566Z,100676.16
2023-03-16T12:49:28.556Z,100671.80
2023-03-16T12:52:03.305Z,100678.84
2023-03-16T12:54:36.291Z,100680.41
2023-03-16T12:57:15.873Z,100682.80
2023-03-16T12:59:51.808Z,100682.23
2023-03-16T13:02:31.619Z,100684.96
2023-03-16T13:05:11.665Z,100680.59
2023-03-16T13:07:51.898Z,100685.85
2023-03-16T13:10:25.926Z,100688.23
2023-03-16T13:13:08.466Z,100690.14
2023-03-16T13:15:41.707Z,100689.73
2023-03-16T13:18:35.334Z,100689.39
2023-03-16T13:21:19.750Z,100692.49
2023-03-16T13:23:59.515Z,100690.10
2023-03-16T13:26:46.374Z,100688.35
2023-03-16T13:29:24.473Z,100686.42
2023-03-16T13:31:59.082Z,100690.45
2023-03-16T13:34:34.039Z,100697.30
2023-03-16T13:37:05.076Z,100699.27
2023-03-16T13:39:37.312Z,100702.20
2023-03-16T13:42:19.129Z,100702.83
2023-03-16T13:44:53.731Z,100706.55
2023-03-16T13:47:28.845Z,100705.45
2023-03-16T13:50:02.385Z,100702.41
2023-03-16T13:52:36.810Z,100705.76
2023-03-16T13:55:18.237Z,100707.86
2023-03-16T13:57:51.551Z,100710.30
2023-03-16T14:00:27.868Z,100713.61
2023-03-16T14:03:04.535Z,100710.45
2023-03-16T14:05:40.721Z,100714.47
2023-03-16T14:08:20.598Z,100712.36
2023-03-16T14:10:59.830Z,100710.68
2023-03-16T14:13:39.335Z,100717.32
2023-03-16T14:16:17.753Z,100714.21
2023-03-16T14:18:56.089Z,100712.38
2023-03-16T14:21:30.874Z,100713.61
2023-03-16T14:24:05.661Z,100715.92
2023-03-16T14:26:45.229Z,100715.80
2023-03-16T14:29:22.891Z,100719.46
2023-03-16T14:31:56.004Z,100715.46
2023-03-16T14:34:34.035Z,100717.86
2023-03-16T14:37:11.863Z,100714.55
2023-03-16T14:39:44.693Z,100715.09
2023-03-16T14:42:25.888Z,100711.98
2023-03-16T14:45:00.121Z,100712.69
2023-03-16T14:47:38.637Z,100708.77
2023-03-16T14:50:15.623Z,100709.42
2023-03-16T14:52:48.531Z,100708.13
2023-03-16T14:55:22.954Z,100711.81
2023-03-16T14:57:55.703Z,100711.17
2023-03-16T15:00:29.394Z,100713.04
2023-03-16T15:03:08.328Z,100708.77
2023-03-16T15:05:43.339Z,100710.70
2023-03-16T15:08:20.200Z,100710.95
2023-03-16T15:10:59.267Z,100713.95
2023-03-16T15:13:53.328Z,100716.15
2023-03-16T15:16:26.150Z,100716.20
2023-03-16T15:18:58.494Z,100717.95
2023-03-16T15:21:31.662Z,100719.44
2023-03-16T15:24:04.115Z,100720.67
2023-03-16T15:26:36.481Z,100722.06
2023-03-16T15:29:14.655Z,100725.66
2023-03-16T15:31:47.011Z,100731.27
2023-03-16T15:34:19.327Z,100732.34
2023-03-16T15:36:51.967Z,100731.52
2023-03-16T15:39:28.067Z,100733.92
2023-03-16T15:42:00.631Z,100734.45
2023-03-16T15:44:33.250Z,100736.52
2023-03-16T15:47:05.654Z,100741.29
2023-03-16T15:49:47.082Z,100743.60
2023-03-16T15:52:28.228Z,100743.60
2023-03-16T15:55:07.884Z,100742.81
2023-03-16T15:57:40.288Z,100742.00
2023-03-16T16:00:28.716Z,100745.04
2023-03-16T16:03:03.090Z,100750.93
2023-03-16T16:05:36.609Z,100751.27
2023-03-16T16:08:09.313Z,100754.29
2023-03-16T16:10:43.237Z,100755.52
2023-03-16T16:13:18.538Z,100761.73
2023-03-16T16:15:51.485Z,100761.54
2023-03-16T16:18:35.121Z,100762.02
2023-03-16T16:21:09.701Z,100770.67
2023-03-16T16:23:42.983Z,100772.64
2023-03-16T16:26:27.944Z,100776.79
2023-03-16T16:29:08.618Z,100780.70
2023-03-16T16:31:41.074Z,100774.88
2023-03-16T16:34:17.414Z,100777.69
2023-03-16T16:36:50.228Z,100774.86
2023-03-16T16:39:23.101Z,100781.00
2023-03-16T16:41:57.183Z,100785.61
2023-03-16T16:44:34.828Z,100791.77
2023-03-16T16:47:18.858Z,100793.02
2023-03-16T16:49:52.024Z,100793.35
2023-03-16T16:52:24.652Z,100796.83
2023-03-16T16:54:57.245Z,100801.23
2023-03-16T16:57:30.455Z,100802.11
2023-03-16T17:00:03.965Z,100804.79
2023-03-16T17:02:47.460Z,100808.56
2023-03-16T17:05:24.031Z,100809.31
2023-03-16T17:07:56.709Z,100814.39
2023-03-16T17:10:31.480Z,100809.86
2023-03-16T17:13:05.016Z,100810.13
2023-03-16T17:15:37.543Z,100815.77
2023-03-16T17:18:15.379Z,100814.87
2023-03-16T17:20:48.136Z,100815.34
2023-03-16T17:23:31.262Z,100817.45
2023-03-16T17:26:11.178Z,100824.65
2023-03-16T17:28:49.258Z,100827.96
2023-03-16T17:31:25.398Z,100830.45
2023-03-16T17:33:59.205Z,100832.32
2023-03-16T17:36:31.691Z,100834.16
2023-03-16T17:39:04.186Z,100840.27
2023-03-16T17:41:37.180Z,100838.98
2023-03-16T17:44:15.332Z,100841.29
2023-03-16T17:46:49.283Z,100839.60
2023-03-16T17:49:24.258Z,100845.55
2023-03-16T17:51:57.548Z,100845.27
2023-03-16T17:54:29.920Z,100851.95
2023-03-16T17:57:02.318Z,100851.85
2023-03-16T17:59:36.444Z,100855.00
2023-03-16T18:02:34.737Z,100857.55
2023-03-16T18:05:13.105Z,100862.54
2023-03-16T18:07:48.001Z,100860.38
2023-03-16T18:10:23.194Z,100854.48
2023-03-16T18:13:02.458Z,100856.04
2023-03-16T18:15:38.598Z,100856.94
2023-03-16T18:18:21.400Z,100851.83
2023-03-16T18:20:56.985Z,100852.56
2023-03-16T18:23:33.613Z,100859.35
2023-03-16T18:26:07.307Z,100863.23
2023-03-16T18:28:39.662Z,100864.46
2023-03-16T18:31:22.080Z,100866.06
2023-03-16T18:33:57.386Z,100870.17
2023-03-16T18:36:33.361Z,100873.33
2023-03-16T18:39:08.826Z,100873.68
2023-03-16T18:41:41.829Z,100876.40
2023-03-16T18:44:19.945Z,100882.58
2023-03-16T18:46:55.068Z,100884.55
2023-03-16T18:49:33.066Z,100885.81
2023-03-16T18:52:13.682Z,100887.82
2023-03-16T18:54:49.245Z,100891.88
2023-03-16T18:57:23.612Z,100895.46
2023-03-16T18:59:58.942Z,100896.75
2023-03-16T19:02:34.655Z,100898.60
2023-03-16T19:05:13.069Z,100896.52
2023-03-16T19:07:48.230Z,100898.85
2023-03-16T19:10:29.958Z,100901.63
2023-03-16T19:13:02.986Z,100902.21
2023-03-16T19:15:35.840Z,100909.88
2023-03-16T19:18:10.383Z,100911.16
2023-03-16T19:20:45.216Z,100913.69
2023-03-16T19:23:25.925Z,100913.95
2023-03-16T19:25:59.693Z,100919.81
2023-03-16T19:28:36.642Z,100919.64
2023-03-16T19:31:16.659Z,100918.16
2023-03-16T19:33:49.859Z,100916.21
2023-03-16T19:36:26.633Z,100918.17
2023-03-16T19:38:59.310Z,100916.51
2023-03-16T19:41:33.865Z,100914.24
2023-03-16T19:44:15.363Z,100913.98
2023-03-16T19:46:49.095Z,100914.90
2023-03-16T19:49:24.375Z,100920.05
2023-03-16T19:51:58.267Z,100921.98
2023-03-16T19:54:33.538Z,100923.75
2023-03-16T19:57:12.481Z,100921.83
2023-03-16T19:59:49.744Z,100915.65
2023-03-16T20:02:31.619Z,100920.95
2023-03-16T20:05:04.024Z,100923.33
2023-03-16T20:07:38.284Z,100926.41
2023-03-16T20:10:19.283Z,100923.67
2023-03-16T20:12:57.628Z,100929.48
2023-03-16T20:15:34.491Z,100932.23
2023-03-16T20:18:13.765Z,100932.56
2023-03-16T20:20:47.363Z,100932.63
2023-03-16T20:23:26.869Z,100939.61
2023-03-16T20:26:03.883Z,100940.79
2023-03-16T20:28:39.603Z,100939.70
2023-03-16T20:31:20.948Z,100938.98
2023-03-16T20:33:54.808Z,100944.55
2023-03-16T20:36:28.173Z,100944.50
2023-03-16T20:39:00.601Z,100944.48
2023-03-16T20:41:34.121Z,100944.84
2023-03-16T20:44:06.570Z,100946.54
2023-03-16T20:46:41.470Z,100945.83
2023-03-16T20:49:31.460Z,100948.00
2023-03-16T20:52:04.058Z,100945.13
2023-03-16T20:54:38.916Z,100945.15
2023-03-16T20:57:17.761Z,100944.89
2023-03-16T20:59:51.768Z,100944.56
2023-03-16T21:02:29.997Z,100947.35
2023-03-16T21:05:04.831Z,100950.10
2023-03-16T21:07:37.154Z,100951.87
2023-03-16T21:10:10.623Z,100948.75
2023-03-16T21:12:46.249Z,100946.92
2023-03-16T21:15:23.775Z,100948.96
2023-03-16T21:18:01.345Z,100945.77
2023-03-16T21:20:35.719Z,100946.76
2023-03-16T21:23:15.901Z,100948.64
2023-03-16T21:25:51.109Z,100953.77
2023-03-16T21:28:22.088Z,100956.81
2023-03-16T21:30:56.220Z,100957.15
2023-03-16T21:33:31.782Z,100963.46
2023-03-16T21:36:06.274Z,100967.08
2023-03-16T21:38:39.007Z,100969.95
2023-03-16T21:41:11.728Z,100967.10
2023-03-16T21:43:44.502Z,100967.34
2023-03-16T21:46:20.105Z,100965.29
2023-03-16T21:48:54.091Z,100961.23
2023-03-16T21:51:31.388Z,100959.71
2023-03-16T21:54:04.020Z,100966.00
2023-03-16T21:56:36.266Z,100962.03
2023-03-16T21:59:09.126Z,100963.64
2023-03-16T22:02:00.411Z,100959.66
2023-03-16T22:04:33.834Z,100962.98
2023-03-16T22:07:11.603Z,100962.70
2023-03-16T22:09:44.072Z,100959.72
2023-03-16T22:12:17.170Z,100961.21
2023-03-16T22:14:49.548Z,100962.23
2023-03-16T22:17:23.832Z,100960.36
2023-03-16T22:19:56.230Z,100959.77
2023-03-16T22:22:36.424Z,100959.16
2023-03-16T22:25:17.085Z,100963.80
2023-03-16T22:27:50.025Z,100965.17
2023-03-16T22:30:24.856Z,100966.00
2023-03-16T22:32:59.412Z,100963.77
2023-03-16T22:35:35.823Z,100963.80
2023-03-16T22:38:13.295Z,100961.27
2023-03-16T22:40:45.925Z,100966.02
2023-03-16T22:43:23.794Z,100970.94
2023-03-16T22:45:57.030Z,100971.50
2023-03-16T22:48:31.886Z,100973.02
2023-03-16T22:51:06.397Z,100978.55
2023-03-16T22:53:41.057Z,100984.56
2023-03-16T22:56:13.683Z,100991.40
2023-03-16T22:58:49.746Z,100995.98
2023-03-16T23:01:24.005Z,101005.64
2023-03-16T23:03:55.751Z,101010.48
2023-03-16T23:06:31.520Z,101006.77
2023-03-16T23:09:03.933Z,101015.93
2023-03-16T23:11:37.941Z,101018.52
2023-03-16T23:14:15.181Z,101019.77
2023-03-16T23:16:50.324Z,101017.58
2023-03-16T23:19:29.865Z,101018.06
2023-03-16T23:22:05.023Z,101017.63
2023-03-16T23:24:37.890Z,101014.27
2023-03-16T23:27:18.584Z,101011.80
2023-03-16T23:29:51.171Z,101004.75
2023-03-16T23:32:23.387Z,101008.41
2023-03-16T23:34:55.581Z,101007.59
2023-03-16T23:37:27.900Z,101009.98
2023-03-16T23:40:00.173Z,101004.46
2023-03-16T23:42:32.901Z,100997.09
2023-03-16T23:45:13.480Z,100998.17
2023-03-16T23:47:48.116Z,100992.52
2023-03-16T23:50:26.940Z,100988.36
2023-03-16T23:52:59.487Z,100990.41
2023-03-16T23:55:31.791Z,100987.54
2023-03-16T23:58:04.236Z,100982.35
